sensor_id;sensor_type;location;lat;lon;timestamp;P1;durP1;ratioP1;P2;durP2;ratioP2
46391;SDS011;32098;49.448;7.904;2023-05-21T00:01:47;18.45;;;14.25;;
46391;SDS011;32098;49.448;7.904;2023-05-21T00:04:15;15.90;;;14.15;;
46391;SDS011;32098;49.448;7.904;2023-05-21T00:06:42;18.00;;;15.43;;
46391;SDS011;32098;49.448;7.904;2023-05-21T00:09:09;20.02;;;15.07;;
46391;SDS011;32098;49.448;7.904;2023-05-21T00:11:38;17.42;;;15.43;;
46391;SDS011;32098;49.448;7.904;2023-05-21T00:14:04;17.52;;;15.15;;
46391;SDS011;32098;49.448;7.904;2023-05-21T00:16:31;18.35;;;14.45;;
46391;SDS011;32098;49.448;7.904;2023-05-21T00:18:57;18.23;;;14.85;;
46391;SDS011;32098;49.448;7.904;2023-05-21T00:21:24;17.63;;;15.30;;
46391;SDS011;32098;49.448;7.904;2023-05-21T00:23:51;18.08;;;14.68;;
46391;SDS011;32098;49.448;7.904;2023-05-21T00:26:22;19.30;;;14.40;;
46391;SDS011;32098;49.448;7.904;2023-05-21T00:28:55;17.67;;;14.70;;
46391;SDS011;32098;49.448;7.904;2023-05-21T00:31:21;16.83;;;14.30;;
46391;SDS011;32098;49.448;7.904;2023-05-21T00:33:48;18.95;;;15.40;;
46391;SDS011;32098;49.448;7.904;2023-05-21T00:36:15;17.52;;;15.15;;
46391;SDS011;32098;49.448;7.904;2023-05-21T00:38:42;17.60;;;14.88;;
46391;SDS011;32098;49.448;7.904;2023-05-21T00:41:09;19.85;;;15.48;;
46391;SDS011;32098;49.448;7.904;2023-05-21T00:43:36;19.42;;;15.13;;
46391;SDS011;32098;49.448;7.904;2023-05-21T00:46:06;18.00;;;14.98;;
46391;SDS011;32098;49.448;7.904;2023-05-21T00:48:37;17.50;;;15.15;;
46391;SDS011;32098;49.448;7.904;2023-05-21T00:51:05;19.17;;;14.45;;
46391;SDS011;32098;49.448;7.904;2023-05-21T00:53:32;19.67;;;14.80;;
46391;SDS011;32098;49.448;7.904;2023-05-21T00:56:01;17.92;;;14.52;;
46391;SDS011;32098;49.448;7.904;2023-05-21T00:58:28;19.90;;;15.38;;
46391;SDS011;32098;49.448;7.904;2023-05-21T01:00:56;17.77;;;14.48;;
46391;SDS011;32098;49.448;7.904;2023-05-21T01:03:23;15.70;;;13.40;;
46391;SDS011;32098;49.448;7.904;2023-05-21T01:05:50;16.42;;;14.73;;
46391;SDS011;32098;49.448;7.904;2023-05-21T01:08:19;17.85;;;14.02;;
46391;SDS011;32098;49.448;7.904;2023-05-21T01:10:48;16.60;;;14.35;;
46391;SDS011;32098;49.448;7.904;2023-05-21T01:13:16;19.15;;;15.52;;
46391;SDS011;32098;49.448;7.904;2023-05-21T01:15:43;19.45;;;14.90;;
46391;SDS011;32098;49.448;7.904;2023-05-21T01:18:10;20.38;;;15.43;;
46391;SDS011;32098;49.448;7.904;2023-05-21T01:20:39;19.23;;;14.98;;
46391;SDS011;32098;49.448;7.904;2023-05-21T01:23:07;18.35;;;15.32;;
46391;SDS011;32098;49.448;7.904;2023-05-21T01:25:34;19.23;;;15.25;;
46391;SDS011;32098;49.448;7.904;2023-05-21T01:28:01;20.80;;;15.50;;
46391;SDS011;32098;49.448;7.904;2023-05-21T01:30:27;18.55;;;15.00;;
46391;SDS011;32098;49.448;7.904;2023-05-21T01:35:37;18.17;;;15.05;;
46391;SDS011;32098;49.448;7.904;2023-05-21T01:38:52;19.10;;;15.43;;
46391;SDS011;32098;49.448;7.904;2023-05-21T01:41:09;18.65;;;14.65;;
46391;SDS011;32098;49.448;7.904;2023-05-21T01:43:38;19.55;;;15.98;;
46391;SDS011;32098;49.448;7.904;2023-05-21T01:46:08;16.65;;;13.98;;
46391;SDS011;32098;49.448;7.904;2023-05-21T01:48:36;19.30;;;15.57;;
46391;SDS011;32098;49.448;7.904;2023-05-21T01:51:04;19.58;;;15.25;;
46391;SDS011;32098;49.448;7.904;2023-05-21T01:53:31;18.02;;;14.60;;
46391;SDS011;32098;49.448;7.904;2023-05-21T01:55:58;17.20;;;14.00;;
46391;SDS011;32098;49.448;7.904;2023-05-21T01:58:25;18.58;;;14.70;;
46391;SDS011;32098;49.448;7.904;2023-05-21T02:00:51;20.10;;;15.55;;
46391;SDS011;32098;49.448;7.904;2023-05-21T02:03:18;18.77;;;15.27;;
46391;SDS011;32098;49.448;7.904;2023-05-21T02:05:46;21.65;;;16.00;;
46391;SDS011;32098;49.448;7.904;2023-05-21T02:08:12;19.88;;;15.68;;
46391;SDS011;32098;49.448;7.904;2023-05-21T02:10:40;18.73;;;15.10;;
46391;SDS011;32098;49.448;7.904;2023-05-21T02:13:06;18.58;;;15.88;;
46391;SDS011;32098;49.448;7.904;2023-05-21T02:15:33;21.13;;;15.57;;
46391;SDS011;32098;49.448;7.904;2023-05-21T02:18:00;20.00;;;15.85;;
46391;SDS011;32098;49.448;7.904;2023-05-21T02:20:27;19.75;;;15.13;;
46391;SDS011;32098;49.448;7.904;2023-05-21T02:22:55;16.20;;;14.40;;
46391;SDS011;32098;49.448;7.904;2023-05-21T02:25:22;16.40;;;14.25;;
46391;SDS011;32098;49.448;7.904;2023-05-21T02:27:48;18.15;;;14.32;;
46391;SDS011;32098;49.448;7.904;2023-05-21T02:30:18;16.20;;;14.07;;
46391;SDS011;32098;49.448;7.904;2023-05-21T02:32:45;15.60;;;13.48;;
46391;SDS011;32098;49.448;7.904;2023-05-21T02:35:14;18.50;;;14.48;;
46391;SDS011;32098;49.448;7.904;2023-05-21T02:37:40;16.08;;;14.20;;
46391;SDS011;32098;49.448;7.904;2023-05-21T02:40:09;16.63;;;14.38;;
46391;SDS011;32098;49.448;7.904;2023-05-21T02:42:37;18.27;;;14.68;;
46391;SDS011;32098;49.448;7.904;2023-05-21T02:45:07;18.05;;;14.32;;
46391;SDS011;32098;49.448;7.904;2023-05-21T02:47:35;17.30;;;15.45;;
46391;SDS011;32098;49.448;7.904;2023-05-21T02:50:05;17.02;;;14.85;;
46391;SDS011;32098;49.448;7.904;2023-05-21T02:52:40;17.80;;;14.82;;
46391;SDS011;32098;49.448;7.904;2023-05-21T02:55:07;21.40;;;15.57;;
46391;SDS011;32098;49.448;7.904;2023-05-21T02:57:34;19.95;;;15.82;;
46391;SDS011;32098;49.448;7.904;2023-05-21T03:00:00;19.17;;;15.05;;
46391;SDS011;32098;49.448;7.904;2023-05-21T03:02:27;19.08;;;14.55;;
46391;SDS011;32098;49.448;7.904;2023-05-21T03:04:55;18.70;;;14.85;;
46391;SDS011;32098;49.448;7.904;2023-05-21T03:07:22;19.55;;;15.13;;
46391;SDS011;32098;49.448;7.904;2023-05-21T03:09:49;18.13;;;15.20;;
46391;SDS011;32098;49.448;7.904;2023-05-21T03:12:16;19.50;;;15.13;;
46391;SDS011;32098;49.448;7.904;2023-05-21T03:14:42;19.42;;;15.93;;
46391;SDS011;32098;49.448;7.904;2023-05-21T03:17:09;21.65;;;16.30;;
46391;SDS011;32098;49.448;7.904;2023-05-21T03:19:39;18.20;;;15.60;;
46391;SDS011;32098;49.448;7.904;2023-05-21T03:22:07;18.13;;;15.75;;
46391;SDS011;32098;49.448;7.904;2023-05-21T03:24:35;19.70;;;15.23;;
46391;SDS011;32098;49.448;7.904;2023-05-21T03:27:07;19.67;;;15.05;;
46391;SDS011;32098;49.448;7.904;2023-05-21T03:29:33;18.63;;;15.75;;
46391;SDS011;32098;49.448;7.904;2023-05-21T03:32:01;19.20;;;15.65;;
46391;SDS011;32098;49.448;7.904;2023-05-21T03:34:30;18.58;;;15.48;;
46391;SDS011;32098;49.448;7.904;2023-05-21T03:36:59;17.80;;;14.50;;
46391;SDS011;32098;49.448;7.904;2023-05-21T03:39:26;17.60;;;14.57;;
46391;SDS011;32098;49.448;7.904;2023-05-21T03:41:54;19.83;;;15.77;;
46391;SDS011;32098;49.448;7.904;2023-05-21T03:44:43;16.13;;;14.00;;
46391;SDS011;32098;49.448;7.904;2023-05-21T03:47:39;20.15;;;14.50;;
46391;SDS011;32098;49.448;7.904;2023-05-21T03:50:08;18.65;;;14.90;;
46391;SDS011;32098;49.448;7.904;2023-05-21T03:52:35;19.50;;;14.63;;
46391;SDS011;32098;49.448;7.904;2023-05-21T03:55:02;19.80;;;15.60;;
46391;SDS011;32098;49.448;7.904;2023-05-21T03:57:29;19.20;;;14.60;;
46391;SDS011;32098;49.448;7.904;2023-05-21T03:59:56;16.92;;;14.20;;
46391;SDS011;32098;49.448;7.904;2023-05-21T04:02:24;17.88;;;14.65;;
46391;SDS011;32098;49.448;7.904;2023-05-21T04:04:52;18.08;;;14.73;;
46391;SDS011;32098;49.448;7.904;2023-05-21T04:07:19;19.10;;;15.57;;
46391;SDS011;32098;49.448;7.904;2023-05-21T04:09:45;20.27;;;15.75;;
46391;SDS011;32098;49.448;7.904;2023-05-21T04:12:12;19.33;;;15.70;;
46391;SDS011;32098;49.448;7.904;2023-05-21T04:14:39;17.98;;;15.55;;
46391;SDS011;32098;49.448;7.904;2023-05-21T04:17:05;22.02;;;16.52;;
46391;SDS011;32098;49.448;7.904;2023-05-21T04:19:32;19.33;;;14.68;;
46391;SDS011;32098;49.448;7.904;2023-05-21T04:22:00;18.73;;;15.68;;
46391;SDS011;32098;49.448;7.904;2023-05-21T04:24:28;17.85;;;14.48;;
46391;SDS011;32098;49.448;7.904;2023-05-21T04:27:20;18.45;;;14.90;;
46391;SDS011;32098;49.448;7.904;2023-05-21T04:29:51;18.40;;;14.90;;
46391;SDS011;32098;49.448;7.904;2023-05-21T04:32:21;18.67;;;14.82;;
46391;SDS011;32098;49.448;7.904;2023-05-21T04:34:48;22.25;;;15.35;;
46391;SDS011;32098;49.448;7.904;2023-05-21T04:37:15;19.20;;;14.65;;
46391;SDS011;32098;49.448;7.904;2023-05-21T04:39:44;20.65;;;15.20;;
46391;SDS011;32098;49.448;7.904;2023-05-21T04:42:12;18.52;;;14.57;;
46391;SDS011;32098;49.448;7.904;2023-05-21T04:44:40;20.50;;;16.15;;
46391;SDS011;32098;49.448;7.904;2023-05-21T04:47:09;18.92;;;15.48;;
46391;SDS011;32098;49.448;7.904;2023-05-21T04:49:37;20.02;;;14.85;;
46391;SDS011;32098;49.448;7.904;2023-05-21T04:52:04;17.83;;;14.90;;
46391;SDS011;32098;49.448;7.904;2023-05-21T04:54:30;20.70;;;15.13;;
46391;SDS011;32098;49.448;7.904;2023-05-21T04:56:57;16.85;;;14.13;;
46391;SDS011;32098;49.448;7.904;2023-05-21T04:59:23;20.17;;;15.35;;
46391;SDS011;32098;49.448;7.904;2023-05-21T05:01:50;17.25;;;14.10;;
46391;SDS011;32098;49.448;7.904;2023-05-21T05:04:20;18.70;;;13.52;;
46391;SDS011;32098;49.448;7.904;2023-05-21T05:06:47;18.27;;;15.18;;
46391;SDS011;32098;49.448;7.904;2023-05-21T05:09:14;18.38;;;14.13;;
46391;SDS011;32098;49.448;7.904;2023-05-21T05:11:40;18.05;;;14.45;;
46391;SDS011;32098;49.448;7.904;2023-05-21T05:14:07;18.98;;;14.27;;
46391;SDS011;32098;49.448;7.904;2023-05-21T05:16:33;17.48;;;14.05;;
46391;SDS011;32098;49.448;7.904;2023-05-21T05:19:00;18.70;;;14.32;;
46391;SDS011;32098;49.448;7.904;2023-05-21T05:21:27;18.33;;;14.13;;
46391;SDS011;32098;49.448;7.904;2023-05-21T05:23:54;17.08;;;13.85;;
46391;SDS011;32098;49.448;7.904;2023-05-21T05:26:25;16.88;;;13.88;;
46391;SDS011;32098;49.448;7.904;2023-05-21T05:28:51;16.88;;;13.77;;
46391;SDS011;32098;49.448;7.904;2023-05-21T05:31:18;17.40;;;14.50;;
46391;SDS011;32098;49.448;7.904;2023-05-21T05:33:45;15.32;;;13.60;;
46391;SDS011;32098;49.448;7.904;2023-05-21T05:36:12;18.83;;;13.88;;
46391;SDS011;32098;49.448;7.904;2023-05-21T05:38:39;16.95;;;14.15;;
46391;SDS011;32098;49.448;7.904;2023-05-21T05:41:06;20.77;;;14.43;;
46391;SDS011;32098;49.448;7.904;2023-05-21T05:43:32;17.15;;;14.50;;
46391;SDS011;32098;49.448;7.904;2023-05-21T05:45:59;17.30;;;13.57;;
46391;SDS011;32098;49.448;7.904;2023-05-21T05:48:27;16.25;;;12.95;;
46391;SDS011;32098;49.448;7.904;2023-05-21T05:50:53;16.70;;;13.73;;
46391;SDS011;32098;49.448;7.904;2023-05-21T05:53:23;16.40;;;13.75;;
46391;SDS011;32098;49.448;7.904;2023-05-21T05:55:50;18.52;;;12.90;;
46391;SDS011;32098;49.448;7.904;2023-05-21T05:58:17;16.27;;;12.70;;
46391;SDS011;32098;49.448;7.904;2023-05-21T06:00:52;18.20;;;14.00;;
46391;SDS011;32098;49.448;7.904;2023-05-21T06:03:18;16.73;;;12.93;;
46391;SDS011;32098;49.448;7.904;2023-05-21T06:05:45;16.95;;;13.77;;
46391;SDS011;32098;49.448;7.904;2023-05-21T06:08:12;18.10;;;14.13;;
46391;SDS011;32098;49.448;7.904;2023-05-21T06:10:38;17.38;;;13.77;;
46391;SDS011;32098;49.448;7.904;2023-05-21T06:13:05;15.73;;;12.93;;
46391;SDS011;32098;49.448;7.904;2023-05-21T06:15:32;15.73;;;13.02;;
46391;SDS011;32098;49.448;7.904;2023-05-21T06:17:58;18.40;;;13.45;;
46391;SDS011;32098;49.448;7.904;2023-05-21T06:20:25;16.05;;;13.07;;
46391;SDS011;32098;49.448;7.904;2023-05-21T06:22:52;18.35;;;13.95;;
46391;SDS011;32098;49.448;7.904;2023-05-21T06:25:19;15.63;;;12.88;;
46391;SDS011;32098;49.448;7.904;2023-05-21T06:27:46;15.95;;;13.35;;
46391;SDS011;32098;49.448;7.904;2023-05-21T06:30:18;16.88;;;13.20;;
46391;SDS011;32098;49.448;7.904;2023-05-21T06:32:45;16.23;;;12.98;;
46391;SDS011;32098;49.448;7.904;2023-05-21T06:35:12;15.70;;;13.57;;
46391;SDS011;32098;49.448;7.904;2023-05-21T06:37:38;16.27;;;13.65;;
46391;SDS011;32098;49.448;7.904;2023-05-21T06:40:05;15.48;;;13.10;;
46391;SDS011;32098;49.448;7.904;2023-05-21T06:42:35;17.40;;;12.60;;
46391;SDS011;32098;49.448;7.904;2023-05-21T06:45:27;15.98;;;12.68;;
46391;SDS011;32098;49.448;7.904;2023-05-21T06:47:58;16.13;;;13.38;;
46391;SDS011;32098;49.448;7.904;2023-05-21T06:50:25;15.88;;;13.13;;
46391;SDS011;32098;49.448;7.904;2023-05-21T06:52:51;15.18;;;12.98;;
46391;SDS011;32098;49.448;7.904;2023-05-21T06:55:18;16.35;;;13.52;;
46391;SDS011;32098;49.448;7.904;2023-05-21T06:58:08;15.23;;;12.75;;
46391;SDS011;32098;49.448;7.904;2023-05-21T07:00:35;14.85;;;12.45;;
46391;SDS011;32098;49.448;7.904;2023-05-21T07:03:02;15.68;;;13.13;;
46391;SDS011;32098;49.448;7.904;2023-05-21T07:05:29;15.02;;;13.15;;
46391;SDS011;32098;49.448;7.904;2023-05-21T07:07:56;15.75;;;13.45;;
46391;SDS011;32098;49.448;7.904;2023-05-21T07:10:22;16.30;;;13.20;;
46391;SDS011;32098;49.448;7.904;2023-05-21T07:12:49;16.20;;;13.68;;
46391;SDS011;32098;49.448;7.904;2023-05-21T07:15:16;17.23;;;13.10;;
46391;SDS011;32098;49.448;7.904;2023-05-21T07:17:42;17.08;;;13.15;;
46391;SDS011;32098;49.448;7.904;2023-05-21T07:20:10;16.75;;;13.38;;
46391;SDS011;32098;49.448;7.904;2023-05-21T07:22:40;15.40;;;13.10;;
46391;SDS011;32098;49.448;7.904;2023-05-21T07:25:09;16.75;;;14.27;;
46391;SDS011;32098;49.448;7.904;2023-05-21T07:27:36;17.83;;;13.27;;
46391;SDS011;32098;49.448;7.904;2023-05-21T07:30:03;14.80;;;13.18;;
46391;SDS011;32098;49.448;7.904;2023-05-21T07:32:31;14.10;;;12.30;;
46391;SDS011;32098;49.448;7.904;2023-05-21T07:34:58;16.98;;;12.57;;
46391;SDS011;32098;49.448;7.904;2023-05-21T07:37:29;15.73;;;12.75;;
46391;SDS011;32098;49.448;7.904;2023-05-21T07:39:56;18.13;;;12.95;;
46391;SDS011;32098;49.448;7.904;2023-05-21T07:42:24;15.95;;;12.63;;
46391;SDS011;32098;49.448;7.904;2023-05-21T07:44:52;14.13;;;12.65;;
46391;SDS011;32098;49.448;7.904;2023-05-21T07:47:19;14.73;;;12.40;;
46391;SDS011;32098;49.448;7.904;2023-05-21T07:49:45;15.85;;;12.18;;
46391;SDS011;32098;49.448;7.904;2023-05-21T07:52:12;13.90;;;12.50;;
46391;SDS011;32098;49.448;7.904;2023-05-21T07:54:39;15.57;;;11.93;;
46391;SDS011;32098;49.448;7.904;2023-05-21T07:57:06;13.85;;;11.73;;
46391;SDS011;32098;49.448;7.904;2023-05-21T08:00:02;14.10;;;12.00;;
46391;SDS011;32098;49.448;7.904;2023-05-21T08:02:40;14.63;;;12.60;;
46391;SDS011;32098;49.448;7.904;2023-05-21T08:05:09;15.15;;;12.27;;
46391;SDS011;32098;49.448;7.904;2023-05-21T08:07:36;13.60;;;11.93;;
46391;SDS011;32098;49.448;7.904;2023-05-21T08:10:03;15.32;;;12.20;;
46391;SDS011;32098;49.448;7.904;2023-05-21T08:12:30;12.98;;;11.68;;
46391;SDS011;32098;49.448;7.904;2023-05-21T08:14:58;14.43;;;12.55;;
46391;SDS011;32098;49.448;7.904;2023-05-21T08:17:25;14.38;;;12.45;;
46391;SDS011;32098;49.448;7.904;2023-05-21T08:19:53;13.60;;;11.90;;
46391;SDS011;32098;49.448;7.904;2023-05-21T08:22:20;14.77;;;11.65;;
46391;SDS011;32098;49.448;7.904;2023-05-21T08:24:47;15.90;;;12.63;;
46391;SDS011;32098;49.448;7.904;2023-05-21T08:27:14;13.27;;;11.88;;
46391;SDS011;32098;49.448;7.904;2023-05-21T08:29:41;13.00;;;11.60;;
46391;SDS011;32098;49.448;7.904;2023-05-21T08:32:09;14.88;;;11.88;;
46391;SDS011;32098;49.448;7.904;2023-05-21T08:34:36;14.57;;;11.82;;
46391;SDS011;32098;49.448;7.904;2023-05-21T08:37:15;14.68;;;12.45;;
46391;SDS011;32098;49.448;7.904;2023-05-21T08:39:57;14.23;;;11.75;;
46391;SDS011;32098;49.448;7.904;2023-05-21T08:42:29;15.85;;;12.02;;
46391;SDS011;32098;49.448;7.904;2023-05-21T08:45:04;13.63;;;11.75;;
46391;SDS011;32098;49.448;7.904;2023-05-21T08:47:33;14.48;;;10.55;;
46391;SDS011;32098;49.448;7.904;2023-05-21T08:50:09;13.07;;;11.55;;
46391;SDS011;32098;49.448;7.904;2023-05-21T08:52:37;14.40;;;11.18;;
46391;SDS011;32098;49.448;7.904;2023-05-21T08:55:04;13.60;;;11.70;;
46391;SDS011;32098;49.448;7.904;2023-05-21T08:57:32;14.70;;;11.80;;
46391;SDS011;32098;49.448;7.904;2023-05-21T09:00:03;13.73;;;11.23;;
46391;SDS011;32098;49.448;7.904;2023-05-21T09:02:34;13.68;;;12.27;;
46391;SDS011;32098;49.448;7.904;2023-05-21T09:05:06;12.93;;;11.60;;
46391;SDS011;32098;49.448;7.904;2023-05-21T09:11:01;13.43;;;12.02;;
46391;SDS011;32098;49.448;7.904;2023-05-21T09:13:33;14.95;;;12.13;;
46391;SDS011;32098;49.448;7.904;2023-05-21T09:16:10;13.48;;;11.10;;
46391;SDS011;32098;49.448;7.904;2023-05-21T09:18:37;12.20;;;10.88;;
46391;SDS011;32098;49.448;7.904;2023-05-21T09:21:23;13.18;;;11.82;;
46391;SDS011;32098;49.448;7.904;2023-05-21T09:24:01;12.93;;;11.55;;
46391;SDS011;32098;49.448;7.904;2023-05-21T09:26:28;12.82;;;11.05;;
46391;SDS011;32098;49.448;7.904;2023-05-21T09:28:59;13.57;;;11.55;;
46391;SDS011;32098;49.448;7.904;2023-05-21T09:31:26;14.18;;;11.80;;
46391;SDS011;32098;49.448;7.904;2023-05-21T09:33:54;12.45;;;11.15;;
46391;SDS011;32098;49.448;7.904;2023-05-21T09:36:23;13.70;;;11.43;;
46391;SDS011;32098;49.448;7.904;2023-05-21T09:38:49;15.20;;;11.60;;
46391;SDS011;32098;49.448;7.904;2023-05-21T09:41:17;14.60;;;11.57;;
46391;SDS011;32098;49.448;7.904;2023-05-21T09:43:47;12.68;;;11.30;;
46391;SDS011;32098;49.448;7.904;2023-05-21T09:46:19;12.52;;;11.23;;
46391;SDS011;32098;49.448;7.904;2023-05-21T09:48:51;13.52;;;11.13;;
46391;SDS011;32098;49.448;7.904;2023-05-21T09:51:19;13.32;;;11.93;;
46391;SDS011;32098;49.448;7.904;2023-05-21T09:53:50;12.48;;;10.77;;
46391;SDS011;32098;49.448;7.904;2023-05-21T09:56:36;13.27;;;11.88;;
46391;SDS011;32098;49.448;7.904;2023-05-21T09:59:05;13.02;;;11.40;;
46391;SDS011;32098;49.448;7.904;2023-05-21T10:01:33;12.50;;;11.20;;
46391;SDS011;32098;49.448;7.904;2023-05-21T10:04:01;13.40;;;11.25;;
46391;SDS011;32098;49.448;7.904;2023-05-21T10:06:31;12.35;;;10.98;;
46391;SDS011;32098;49.448;7.904;2023-05-21T10:09:04;12.55;;;10.68;;
46391;SDS011;32098;49.448;7.904;2023-05-21T10:11:35;14.93;;;11.75;;
46391;SDS011;32098;49.448;7.904;2023-05-21T10:14:04;13.35;;;10.88;;
46391;SDS011;32098;49.448;7.904;2023-05-21T10:16:35;15.45;;;10.77;;
46391;SDS011;32098;49.448;7.904;2023-05-21T10:19:04;12.20;;;10.90;;
46391;SDS011;32098;49.448;7.904;2023-05-21T10:21:36;12.57;;;11.27;;
46391;SDS011;32098;49.448;7.904;2023-05-21T10:24:05;12.60;;;11.10;;
46391;SDS011;32098;49.448;7.904;2023-05-21T10:26:32;13.27;;;11.10;;
46391;SDS011;32098;49.448;7.904;2023-05-21T10:28:59;12.80;;;10.65;;
46391;SDS011;32098;49.448;7.904;2023-05-21T10:31:27;12.23;;;10.35;;
46391;SDS011;32098;49.448;7.904;2023-05-21T10:33:54;12.70;;;11.40;;
46391;SDS011;32098;49.448;7.904;2023-05-21T10:36:22;12.07;;;10.32;;
46391;SDS011;32098;49.448;7.904;2023-05-21T10:38:50;12.32;;;11.02;;
46391;SDS011;32098;49.448;7.904;2023-05-21T10:41:17;13.35;;;10.88;;
46391;SDS011;32098;49.448;7.904;2023-05-21T10:43:48;12.30;;;10.57;;
46391;SDS011;32098;49.448;7.904;2023-05-21T10:49:18;11.82;;;10.60;;
46391;SDS011;32098;49.448;7.904;2023-05-21T10:57:53;12.43;;;10.48;;
46391;SDS011;32098;49.448;7.904;2023-05-21T11:00:31;12.63;;;11.32;;
46391;SDS011;32098;49.448;7.904;2023-05-21T11:02:59;14.98;;;10.82;;
46391;SDS011;32098;49.448;7.904;2023-05-21T11:05:39;13.60;;;11.15;;
46391;SDS011;32098;49.448;7.904;2023-05-21T11:08:23;12.20;;;10.90;;
46391;SDS011;32098;49.448;7.904;2023-05-21T11:10:51;13.43;;;10.98;;
46391;SDS011;32098;49.448;7.904;2023-05-21T11:13:20;11.20;;;10.13;;
46391;SDS011;32098;49.448;7.904;2023-05-21T11:21:03;12.35;;;11.15;;
46391;SDS011;32098;49.448;7.904;2023-05-21T11:29:20;13.18;;;11.10;;
46391;SDS011;32098;49.448;7.904;2023-05-21T11:32:00;12.40;;;10.57;;
46391;SDS011;32098;49.448;7.904;2023-05-21T11:39:50;11.98;;;10.77;;
46391;SDS011;32098;49.448;7.904;2023-05-21T11:42:27;12.25;;;11.02;;
46391;SDS011;32098;49.448;7.904;2023-05-21T11:44:57;12.02;;;10.90;;
46391;SDS011;32098;49.448;7.904;2023-05-21T11:47:25;10.63;;;9.23;;
46391;SDS011;32098;49.448;7.904;2023-05-21T11:49:53;11.13;;;10.07;;
46391;SDS011;32098;49.448;7.904;2023-05-21T11:52:22;13.80;;;9.85;;
46391;SDS011;32098;49.448;7.904;2023-05-21T11:54:52;11.50;;;10.13;;
46391;SDS011;32098;49.448;7.904;2023-05-21T11:57:24;11.10;;;9.98;;
46391;SDS011;32098;49.448;7.904;2023-05-21T11:59:53;11.13;;;10.02;;
46391;SDS011;32098;49.448;7.904;2023-05-21T12:02:20;11.38;;;10.13;;
46391;SDS011;32098;49.448;7.904;2023-05-21T12:04:48;11.00;;;9.75;;
46391;SDS011;32098;49.448;7.904;2023-05-21T12:07:18;10.98;;;9.88;;
46391;SDS011;32098;49.448;7.904;2023-05-21T12:09:46;11.90;;;10.32;;
46391;SDS011;32098;49.448;7.904;2023-05-21T12:12:15;11.93;;;10.73;;
46391;SDS011;32098;49.448;7.904;2023-05-21T12:14:43;11.65;;;10.25;;
46391;SDS011;32098;49.448;7.904;2023-05-21T12:17:11;11.73;;;10.52;;
46391;SDS011;32098;49.448;7.904;2023-05-21T12:19:41;12.15;;;10.45;;
46391;SDS011;32098;49.448;7.904;2023-05-21T12:22:08;13.18;;;10.20;;
46391;SDS011;32098;49.448;7.904;2023-05-21T12:24:35;11.55;;;10.35;;
46391;SDS011;32098;49.448;7.904;2023-05-21T12:27:03;11.35;;;10.20;;
46391;SDS011;32098;49.448;7.904;2023-05-21T12:29:35;11.55;;;10.45;;
46391;SDS011;32098;49.448;7.904;2023-05-21T12:32:04;11.57;;;10.48;;
46391;SDS011;32098;49.448;7.904;2023-05-21T12:34:35;11.88;;;10.68;;
46391;SDS011;32098;49.448;7.904;2023-05-21T12:37:04;11.73;;;10.52;;
46391;SDS011;32098;49.448;7.904;2023-05-21T12:39:36;11.93;;;10.75;;
46391;SDS011;32098;49.448;7.904;2023-05-21T12:42:08;11.65;;;10.55;;
46391;SDS011;32098;49.448;7.904;2023-05-21T12:44:35;11.07;;;9.93;;
46391;SDS011;32098;49.448;7.904;2023-05-21T12:47:04;13.60;;;10.68;;
46391;SDS011;32098;49.448;7.904;2023-05-21T12:49:34;11.38;;;10.27;;
46391;SDS011;32098;49.448;7.904;2023-05-21T12:52:09;12.07;;;10.48;;
46391;SDS011;32098;49.448;7.904;2023-05-21T12:54:48;11.73;;;10.60;;
46391;SDS011;32098;49.448;7.904;2023-05-21T12:57:20;11.90;;;10.68;;
46391;SDS011;32098;49.448;7.904;2023-05-21T13:02:25;11.20;;;9.98;;
46391;SDS011;32098;49.448;7.904;2023-05-21T13:07:23;12.48;;;11.18;;
46391;SDS011;32098;49.448;7.904;2023-05-21T13:09:50;11.98;;;10.65;;
46391;SDS011;32098;49.448;7.904;2023-05-21T13:12:22;11.55;;;10.30;;
46391;SDS011;32098;49.448;7.904;2023-05-21T13:14:52;11.75;;;10.45;;
46391;SDS011;32098;49.448;7.904;2023-05-21T13:17:20;10.75;;;9.68;;
46391;SDS011;32098;49.448;7.904;2023-05-21T13:22:47;10.98;;;9.98;;
46391;SDS011;32098;49.448;7.904;2023-05-21T13:25:16;10.60;;;9.60;;
46391;SDS011;32098;49.448;7.904;2023-05-21T13:27:46;12.55;;;9.82;;
46391;SDS011;32098;49.448;7.904;2023-05-21T13:30:13;14.20;;;10.32;;
46391;SDS011;32098;49.448;7.904;2023-05-21T13:32:40;12.30;;;10.02;;
46391;SDS011;32098;49.448;7.904;2023-05-21T13:35:08;11.68;;;9.45;;
46391;SDS011;32098;49.448;7.904;2023-05-21T13:37:35;10.45;;;9.50;;
46391;SDS011;32098;49.448;7.904;2023-05-21T13:40:04;9.95;;;8.90;;
46391;SDS011;32098;49.448;7.904;2023-05-21T13:42:32;10.35;;;9.15;;
46391;SDS011;32098;49.448;7.904;2023-05-21T13:44:59;11.30;;;10.18;;
46391;SDS011;32098;49.448;7.904;2023-05-21T13:47:25;10.98;;;9.65;;
46391;SDS011;32098;49.448;7.904;2023-05-21T13:49:52;14.43;;;9.90;;
46391;SDS011;32098;49.448;7.904;2023-05-21T13:52:19;11.45;;;9.95;;
46391;SDS011;32098;49.448;7.904;2023-05-21T13:54:46;11.05;;;9.55;;
46391;SDS011;32098;49.448;7.904;2023-05-21T13:57:13;11.45;;;10.02;;
46391;SDS011;32098;49.448;7.904;2023-05-21T13:59:40;10.40;;;9.40;;
46391;SDS011;32098;49.448;7.904;2023-05-21T14:02:07;14.07;;;10.15;;
46391;SDS011;32098;49.448;7.904;2023-05-21T14:04:35;10.30;;;9.40;;
46391;SDS011;32098;49.448;7.904;2023-05-21T14:07:04;11.38;;;9.48;;
46391;SDS011;32098;49.448;7.904;2023-05-21T14:09:32;10.43;;;9.23;;
46391;SDS011;32098;49.448;7.904;2023-05-21T14:11:59;12.25;;;10.05;;
46391;SDS011;32098;49.448;7.904;2023-05-21T14:14:26;11.80;;;10.05;;
46391;SDS011;32098;49.448;7.904;2023-05-21T14:16:53;10.40;;;9.40;;
46391;SDS011;32098;49.448;7.904;2023-05-21T14:19:19;11.35;;;9.80;;
46391;SDS011;32098;49.448;7.904;2023-05-21T14:21:46;10.70;;;9.50;;
46391;SDS011;32098;49.448;7.904;2023-05-21T14:24:12;10.63;;;9.52;;
46391;SDS011;32098;49.448;7.904;2023-05-21T14:26:39;10.52;;;9.32;;
46391;SDS011;32098;49.448;7.904;2023-05-21T14:29:06;12.25;;;9.43;;
46391;SDS011;32098;49.448;7.904;2023-05-21T14:31:33;10.63;;;9.48;;
46391;SDS011;32098;49.448;7.904;2023-05-21T14:34:00;10.23;;;9.13;;
46391;SDS011;32098;49.448;7.904;2023-05-21T14:36:28;10.32;;;9.32;;
46391;SDS011;32098;49.448;7.904;2023-05-21T14:38:55;10.82;;;9.73;;
46391;SDS011;32098;49.448;7.904;2023-05-21T14:41:25;10.75;;;9.65;;
46391;SDS011;32098;49.448;7.904;2023-05-21T14:43:52;14.85;;;12.02;;
46391;SDS011;32098;49.448;7.904;2023-05-21T14:46:19;12.85;;;10.68;;
46391;SDS011;32098;49.448;7.904;2023-05-21T14:48:46;10.27;;;9.02;;
46391;SDS011;32098;49.448;7.904;2023-05-21T14:51:12;9.80;;;8.80;;
46391;SDS011;32098;49.448;7.904;2023-05-21T14:53:39;11.45;;;8.98;;
46391;SDS011;32098;49.448;7.904;2023-05-21T14:56:06;11.20;;;9.40;;
46391;SDS011;32098;49.448;7.904;2023-05-21T14:58:33;10.10;;;9.07;;
46391;SDS011;32098;49.448;7.904;2023-05-21T15:01:00;11.60;;;9.40;;
46391;SDS011;32098;49.448;7.904;2023-05-21T15:03:27;10.40;;;9.30;;
46391;SDS011;32098;49.448;7.904;2023-05-21T15:05:54;10.07;;;9.02;;
46391;SDS011;32098;49.448;7.904;2023-05-21T15:08:20;10.68;;;9.57;;
46391;SDS011;32098;49.448;7.904;2023-05-21T15:10:47;22.65;;;20.45;;
46391;SDS011;32098;49.448;7.904;2023-05-21T15:13:14;13.57;;;11.27;;